メインページ
METAR-TAF:

METAR-TAF

空港 :

グワダル, パキスタン

緯度: 25-13-59N, 経度: 062-19-46E, 海抜: 29m

METAR: 見つかりません

時間: 11:36 (06:36 UTC)

予報

当レポートは2時間36分前の04:00(UTC)に作成
予報は04日の 06時(UTC)から 05日の 06時(UTC)まで有効
南西の風 8kt、最大18ktの突風を伴う
視程: 6000m
04日の 1800時(UTC)から
西の風 10kt
視程: 4000m
煙霧
05日の 00時(UTC)から 05日の 04時(UTC)まで一時的に
西/北西の風 5kt
視程: 2000m
高度2000ftの雲は散在している

TAF: OPGD 040400Z 0406/0506 23008G18KT 6000 NSC FM041800 27010KT 4000 HZ NSC TEMPO 0500/0504 29005KT 2000 FU SCT020

4,000以上の空港の気象観測と天気予報(METAR報とTAF報)

利用可能な観測所は地図上に黄色い丸と赤い丸で示す。

丸の上にカーソルを重ねると観測所名を参照できる。

次にクリックすると気象観測と天気予報を参照できる。

マップの切り替え:黒色「×」印の緑ボタンをクリックして拡大、「-」印の緑ボタンをクリックして縮小、緑色の三角印をクリックして隣りの地図に切り替え


METAR-TAF: